Springport, MI (49284)

4:54 AM EDT on April 21, 2015 (GMT -0400)
3 mi ENE of Springport | | Change Station
CLOSE
Current Station
Personal Weather Station
Location: Springport, MI
Elevation: 948 ft
Nearby Weather Stations

Elev 948 ft 42.40 °N, 84.64 °W | Updated 1 minute ago

Overcast
Overcast
39.3 °F
Feels Like 36 °F
N
4.1
Wind Variable Wind from WSW
Gusts 7.6 mph

Today
High -- | Low -- °F
--% Chance of Precip.
Yesterday
High -- | Low -- °F
Precip. -- in
6:48 AM 8:26 PM
Waxing Crescent, 9% visible
Pressure 29.58 in
Visibility 10.0 miles
Clouds Few 3900 ft
Mostly Cloudy 6500 ft
Windchill 36 °F
Dew Point 39 °F
Humidity 100%
Rainfall 0.00 in
Snow Depth Not available.
UV 0 out of 12
Pollen 5.20 out of 12
Air Quality Not available.
Flu Activity Regional
METAR KJXN 210756Z 22012KT 10SM FEW039 BKN065 05/01 A2957 RMK AO2 RAB23E32 SLP017 P0000 T00500006

More Conditions Fewer Conditions

Pressure 29.58 in
Visibility 10.0 miles
Clouds Few 3900 ft
Mostly Cloudy 6500 ft
Windchill 36 °F
Dew Point 39 °F
Humidity 100%
Rainfall 0.00 in
Snow Depth Not available.
UV 0 out of 12
Pollen 5.20 out of 12
Air Quality Not available.
Flu Activity Regional
METAR KJXN 210756Z 22012KT 10SM FEW039 BKN065 05/01 A2957 RMK AO2 RAB23E32 SLP017 P0000 T00500006

More Conditions Fewer Conditions

10-Day Weather Forecast

Almanac

Astronomy

Apr. 21, 2015 Rise Set
Actual Time
Civil Twilight
Nautical Twilight
Astronomical Twilight
Moon
Length of Visible Light
Length of Day
Tomorrow will be .
, % of the Moon is Illuminated

Today's Extremes

State Highs State Lows

Community

WunderPhotos

Upload Photos

1,815,329 photos uploaded!

WunderBlogs® & News

Nearby

Air Quality

  Air Quality AQ Index Pollutant
Not available.

Snow Depth

Station Depth Elevation

Earthquake Activity

City Distance Mag. Time & Date
Minimum magnitude displayed is 2.5.

Coastal Water Temperatures

Place Temperature

Stations

Nearby Weather Stations

Station Location Temp. Windchill Dew Point Humidity Wind Precip. Elev Updated Type